sensor_id;sensor_type;location;lat;lon;timestamp;P1;durP1;ratioP1;P2;durP2;ratioP2
40953;SDS011;26686;50.130;8.710;2023-04-25T00:00:03;5.53;;;4.97;;
40953;SDS011;26686;50.130;8.710;2023-04-25T00:05:08;5.88;;;5.28;;
40953;SDS011;26686;50.130;8.710;2023-04-25T00:10:11;5.50;;;4.93;;
40953;SDS011;26686;50.130;8.710;2023-04-25T00:15:13;6.22;;;5.28;;
40953;SDS011;26686;50.130;8.710;2023-04-25T00:20:15;6.10;;;5.50;;
40953;SDS011;26686;50.130;8.710;2023-04-25T00:25:18;6.40;;;5.85;;
40953;SDS011;26686;50.130;8.710;2023-04-25T00:30:19;5.60;;;5.00;;
40953;SDS011;26686;50.130;8.710;2023-04-25T00:35:21;5.53;;;4.78;;
40953;SDS011;26686;50.130;8.710;2023-04-25T00:40:23;6.00;;;5.40;;
40953;SDS011;26686;50.130;8.710;2023-04-25T00:45:27;5.72;;;5.20;;
40953;SDS011;26686;50.130;8.710;2023-04-25T00:50:30;5.90;;;5.30;;
40953;SDS011;26686;50.130;8.710;2023-04-25T00:55:36;6.07;;;4.72;;
40953;SDS011;26686;50.130;8.710;2023-04-25T01:00:38;5.45;;;4.85;;
40953;SDS011;26686;50.130;8.710;2023-04-25T01:05:41;6.38;;;5.78;;
40953;SDS011;26686;50.130;8.710;2023-04-25T01:10:43;5.10;;;4.60;;
40953;SDS011;26686;50.130;8.710;2023-04-25T01:15:45;5.20;;;4.70;;
40953;SDS011;26686;50.130;8.710;2023-04-25T01:20:48;5.25;;;4.38;;
40953;SDS011;26686;50.130;8.710;2023-04-25T01:25:52;5.53;;;4.65;;
40953;SDS011;26686;50.130;8.710;2023-04-25T01:30:54;5.50;;;5.00;;
40953;SDS011;26686;50.130;8.710;2023-04-25T01:35:57;5.05;;;4.55;;
40953;SDS011;26686;50.130;8.710;2023-04-25T01:40:58;5.78;;;5.28;;
40953;SDS011;26686;50.130;8.710;2023-04-25T01:46:00;4.25;;;3.88;;
40953;SDS011;26686;50.130;8.710;2023-04-25T01:51:02;6.18;;;4.00;;
40953;SDS011;26686;50.130;8.710;2023-04-25T01:56:04;4.90;;;4.40;;
40953;SDS011;26686;50.130;8.710;2023-04-25T02:01:06;4.90;;;4.40;;
40953;SDS011;26686;50.130;8.710;2023-04-25T02:06:08;4.65;;;3.97;;
40953;SDS011;26686;50.130;8.710;2023-04-25T02:11:11;4.95;;;4.45;;
40953;SDS011;26686;50.130;8.710;2023-04-25T02:16:12;4.88;;;4.38;;
40953;SDS011;26686;50.130;8.710;2023-04-25T02:21:15;5.15;;;4.25;;
40953;SDS011;26686;50.130;8.710;2023-04-25T02:26:16;4.78;;;3.60;;
40953;SDS011;26686;50.130;8.710;2023-04-25T02:31:18;4.75;;;4.25;;
40953;SDS011;26686;50.130;8.710;2023-04-25T02:36:19;4.53;;;3.95;;
40953;SDS011;26686;50.130;8.710;2023-04-25T02:41:21;7.15;;;5.03;;
40953;SDS011;26686;50.130;8.710;2023-04-25T02:46:22;5.28;;;4.38;;
40953;SDS011;26686;50.130;8.710;2023-04-25T02:51:39;5.72;;;4.60;;
40953;SDS011;26686;50.130;8.710;2023-04-25T02:56:41;5.43;;;4.93;;
40953;SDS011;26686;50.130;8.710;2023-04-25T03:01:42;5.20;;;4.70;;
40953;SDS011;26686;50.130;8.710;2023-04-25T03:06:44;4.88;;;4.40;;
40953;SDS011;26686;50.130;8.710;2023-04-25T03:11:46;6.03;;;5.43;;
40953;SDS011;26686;50.130;8.710;2023-04-25T03:16:47;8.63;;;5.80;;
40953;SDS011;26686;50.130;8.710;2023-04-25T03:21:49;6.55;;;5.88;;
40953;SDS011;26686;50.130;8.710;2023-04-25T03:26:52;6.95;;;5.97;;
40953;SDS011;26686;50.130;8.710;2023-04-25T03:31:53;7.03;;;5.43;;
40953;SDS011;26686;50.130;8.710;2023-04-25T03:36:55;7.53;;;5.68;;
40953;SDS011;26686;50.130;8.710;2023-04-25T03:41:56;6.55;;;5.93;;
40953;SDS011;26686;50.130;8.710;2023-04-25T03:46:58;7.43;;;6.25;;
40953;SDS011;26686;50.130;8.710;2023-04-25T03:52:00;7.00;;;6.40;;
40953;SDS011;26686;50.130;8.710;2023-04-25T03:57:01;7.28;;;6.28;;
40953;SDS011;26686;50.130;8.710;2023-04-25T04:02:03;7.97;;;6.55;;
40953;SDS011;26686;50.130;8.710;2023-04-25T04:07:04;8.52;;;6.22;;
40953;SDS011;26686;50.130;8.710;2023-04-25T04:12:06;6.65;;;6.05;;
40953;SDS011;26686;50.130;8.710;2023-04-25T04:17:08;8.05;;;7.25;;
40953;SDS011;26686;50.130;8.710;2023-04-25T04:22:09;9.55;;;6.75;;
40953;SDS011;26686;50.130;8.710;2023-04-25T04:27:11;7.97;;;6.30;;
40953;SDS011;26686;50.130;8.710;2023-04-25T04:32:14;9.68;;;5.90;;
40953;SDS011;26686;50.130;8.710;2023-04-25T04:37:16;8.18;;;5.75;;
40953;SDS011;26686;50.130;8.710;2023-04-25T04:42:18;6.20;;;5.38;;
40953;SDS011;26686;50.130;8.710;2023-04-25T04:47:20;9.02;;;4.63;;
40953;SDS011;26686;50.130;8.710;2023-04-25T04:52:22;8.05;;;4.70;;
40953;SDS011;26686;50.130;8.710;2023-04-25T04:57:23;6.90;;;4.68;;
40953;SDS011;26686;50.130;8.710;2023-04-25T05:02:25;6.63;;;4.55;;
40953;SDS011;26686;50.130;8.710;2023-04-25T05:07:26;10.82;;;4.95;;
40953;SDS011;26686;50.130;8.710;2023-04-25T05:12:28;7.85;;;4.60;;
40953;SDS011;26686;50.130;8.710;2023-04-25T05:17:29;10.20;;;5.75;;
40953;SDS011;26686;50.130;8.710;2023-04-25T05:22:31;10.82;;;6.07;;
40953;SDS011;26686;50.130;8.710;2023-04-25T05:27:33;7.68;;;5.32;;
40953;SDS011;26686;50.130;8.710;2023-04-25T05:32:34;7.40;;;5.35;;
40953;SDS011;26686;50.130;8.710;2023-04-25T05:37:36;8.35;;;5.10;;
40953;SDS011;26686;50.130;8.710;2023-04-25T05:42:38;7.00;;;5.07;;
40953;SDS011;26686;50.130;8.710;2023-04-25T05:47:39;6.60;;;4.32;;
40953;SDS011;26686;50.130;8.710;2023-04-25T05:52:41;7.68;;;4.13;;
40953;SDS011;26686;50.130;8.710;2023-04-25T05:57:43;6.00;;;4.00;;
40953;SDS011;26686;50.130;8.710;2023-04-25T06:02:46;7.45;;;5.25;;
40953;SDS011;26686;50.130;8.710;2023-04-25T06:07:48;8.43;;;4.60;;
40953;SDS011;26686;50.130;8.710;2023-04-25T06:12:49;5.53;;;4.40;;
40953;SDS011;26686;50.130;8.710;2023-04-25T06:17:51;7.78;;;4.80;;
40953;SDS011;26686;50.130;8.710;2023-04-25T06:22:52;7.10;;;3.85;;
40953;SDS011;26686;50.130;8.710;2023-04-25T06:27:54;6.93;;;3.60;;
40953;SDS011;26686;50.130;8.710;2023-04-25T06:32:55;6.85;;;3.85;;
40953;SDS011;26686;50.130;8.710;2023-04-25T06:37:57;7.25;;;3.67;;
40953;SDS011;26686;50.130;8.710;2023-04-25T06:42:58;6.63;;;3.88;;
40953;SDS011;26686;50.130;8.710;2023-04-25T06:48:00;4.57;;;3.33;;
40953;SDS011;26686;50.130;8.710;2023-04-25T06:53:02;4.45;;;3.50;;
40953;SDS011;26686;50.130;8.710;2023-04-25T06:58:04;6.35;;;3.30;;
40953;SDS011;26686;50.130;8.710;2023-04-25T07:03:05;7.45;;;3.50;;
40953;SDS011;26686;50.130;8.710;2023-04-25T07:08:07;5.20;;;3.00;;
40953;SDS011;26686;50.130;8.710;2023-04-25T07:13:08;2.53;;;2.13;;
40953;SDS011;26686;50.130;8.710;2023-04-25T07:18:10;6.88;;;3.10;;
40953;SDS011;26686;50.130;8.710;2023-04-25T07:23:13;5.32;;;3.00;;
40953;SDS011;26686;50.130;8.710;2023-04-25T07:28:14;4.22;;;3.15;;
40953;SDS011;26686;50.130;8.710;2023-04-25T07:33:19;4.30;;;3.30;;
40953;SDS011;26686;50.130;8.710;2023-04-25T07:38:21;4.57;;;3.35;;
40953;SDS011;26686;50.130;8.710;2023-04-25T07:43:24;4.75;;;3.63;;
40953;SDS011;26686;50.130;8.710;2023-04-25T07:48:26;6.10;;;2.72;;
40953;SDS011;26686;50.130;8.710;2023-04-25T07:53:27;3.05;;;1.90;;
40953;SDS011;26686;50.130;8.710;2023-04-25T07:58:29;6.90;;;2.70;;
40953;SDS011;26686;50.130;8.710;2023-04-25T08:03:30;3.50;;;2.65;;
40953;SDS011;26686;50.130;8.710;2023-04-25T08:08:32;3.70;;;3.13;;
40953;SDS011;26686;50.130;8.710;2023-04-25T08:13:33;4.72;;;2.47;;
40953;SDS011;26686;50.130;8.710;2023-04-25T08:18:35;6.95;;;3.70;;
40953;SDS011;26686;50.130;8.710;2023-04-25T08:23:37;3.70;;;2.50;;
40953;SDS011;26686;50.130;8.710;2023-04-25T08:28:38;2.70;;;2.50;;
40953;SDS011;26686;50.130;8.710;2023-04-25T08:33:40;4.40;;;2.58;;
40953;SDS011;26686;50.130;8.710;2023-04-25T08:38:41;4.68;;;3.08;;
40953;SDS011;26686;50.130;8.710;2023-04-25T08:43:43;4.93;;;2.78;;
40953;SDS011;26686;50.130;8.710;2023-04-25T08:48:45;4.50;;;3.08;;
40953;SDS011;26686;50.130;8.710;2023-04-25T08:53:47;4.60;;;2.92;;
40953;SDS011;26686;50.130;8.710;2023-04-25T08:58:57;4.40;;;3.28;;
40953;SDS011;26686;50.130;8.710;2023-04-25T09:03:59;3.53;;;2.85;;
40953;SDS011;26686;50.130;8.710;2023-04-25T09:09:04;3.92;;;2.90;;
40953;SDS011;26686;50.130;8.710;2023-04-25T09:14:12;7.85;;;3.97;;
40953;SDS011;26686;50.130;8.710;2023-04-25T09:19:28;5.80;;;4.28;;
40953;SDS011;26686;50.130;8.710;2023-04-25T09:24:44;5.75;;;3.65;;
40953;SDS011;26686;50.130;8.710;2023-04-25T09:29:58;5.32;;;3.67;;
40953;SDS011;26686;50.130;8.710;2023-04-25T09:35:03;4.38;;;3.97;;
40953;SDS011;26686;50.130;8.710;2023-04-25T09:40:06;4.97;;;2.83;;
40953;SDS011;26686;50.130;8.710;2023-04-25T09:45:09;5.10;;;3.27;;
40953;SDS011;26686;50.130;8.710;2023-04-25T09:50:15;4.03;;;2.90;;
40953;SDS011;26686;50.130;8.710;2023-04-25T09:55:18;3.83;;;3.22;;
40953;SDS011;26686;50.130;8.710;2023-04-25T10:00:20;4.13;;;3.70;;
40953;SDS011;26686;50.130;8.710;2023-04-25T10:05:24;3.83;;;2.90;;
40953;SDS011;26686;50.130;8.710;2023-04-25T10:10:30;4.32;;;3.35;;
40953;SDS011;26686;50.130;8.710;2023-04-25T10:15:37;5.68;;;3.22;;
40953;SDS011;26686;50.130;8.710;2023-04-25T10:20:40;6.00;;;4.37;;
40953;SDS011;26686;50.130;8.710;2023-04-25T10:25:42;4.88;;;3.63;;
40953;SDS011;26686;50.130;8.710;2023-04-25T10:36:19;5.57;;;4.78;;
40953;SDS011;26686;50.130;8.710;2023-04-25T10:41:24;5.43;;;3.53;;
40953;SDS011;26686;50.130;8.710;2023-04-25T10:46:26;4.03;;;3.17;;
40953;SDS011;26686;50.130;8.710;2023-04-25T10:51:31;4.95;;;3.33;;
40953;SDS011;26686;50.130;8.710;2023-04-25T10:56:53;5.30;;;3.42;;
40953;SDS011;26686;50.130;8.710;2023-04-25T11:01:55;3.67;;;3.05;;
40953;SDS011;26686;50.130;8.710;2023-04-25T11:12:20;4.60;;;3.00;;
40953;SDS011;26686;50.130;8.710;2023-04-25T11:17:21;4.07;;;2.85;;
40953;SDS011;26686;50.130;8.710;2023-04-25T11:22:26;5.63;;;4.45;;
40953;SDS011;26686;50.130;8.710;2023-04-25T11:27:28;3.70;;;2.55;;
40953;SDS011;26686;50.130;8.710;2023-04-25T11:32:30;6.07;;;4.07;;
40953;SDS011;26686;50.130;8.710;2023-04-25T11:37:32;6.03;;;3.53;;
40953;SDS011;26686;50.130;8.710;2023-04-25T11:42:38;7.10;;;3.55;;
40953;SDS011;26686;50.130;8.710;2023-04-25T11:47:44;3.28;;;1.85;;
40953;SDS011;26686;50.130;8.710;2023-04-25T11:52:46;4.13;;;2.05;;
40953;SDS011;26686;50.130;8.710;2023-04-25T11:57:48;6.10;;;3.53;;
40953;SDS011;26686;50.130;8.710;2023-04-25T12:02:54;5.30;;;3.35;;
40953;SDS011;26686;50.130;8.710;2023-04-25T12:08:15;5.97;;;2.33;;
40953;SDS011;26686;50.130;8.710;2023-04-25T12:13:20;6.40;;;2.50;;
40953;SDS011;26686;50.130;8.710;2023-04-25T12:18:26;7.10;;;5.88;;
40953;SDS011;26686;50.130;8.710;2023-04-25T12:23:29;4.97;;;2.83;;
40953;SDS011;26686;50.130;8.710;2023-04-25T12:28:32;4.63;;;2.70;;
40953;SDS011;26686;50.130;8.710;2023-04-25T12:33:34;4.20;;;2.60;;
40953;SDS011;26686;50.130;8.710;2023-04-25T12:38:38;8.13;;;5.85;;
40953;SDS011;26686;50.130;8.710;2023-04-25T12:43:41;4.72;;;3.53;;
40953;SDS011;26686;50.130;8.710;2023-04-25T12:48:42;5.50;;;3.45;;
40953;SDS011;26686;50.130;8.710;2023-04-25T12:53:44;5.55;;;3.67;;
40953;SDS011;26686;50.130;8.710;2023-04-25T12:58:45;9.43;;;4.40;;
40953;SDS011;26686;50.130;8.710;2023-04-25T13:03:48;5.93;;;3.08;;
40953;SDS011;26686;50.130;8.710;2023-04-25T13:08:51;8.57;;;2.97;;
40953;SDS011;26686;50.130;8.710;2023-04-25T13:13:53;4.85;;;3.03;;
40953;SDS011;26686;50.130;8.710;2023-04-25T13:18:55;5.30;;;2.58;;
40953;SDS011;26686;50.130;8.710;2023-04-25T13:23:57;6.57;;;3.92;;
40953;SDS011;26686;50.130;8.710;2023-04-25T13:28:59;7.50;;;4.03;;
40953;SDS011;26686;50.130;8.710;2023-04-25T13:34:01;5.22;;;2.15;;
40953;SDS011;26686;50.130;8.710;2023-04-25T13:39:03;3.08;;;2.25;;
40953;SDS011;26686;50.130;8.710;2023-04-25T13:44:06;5.82;;;3.67;;
40953;SDS011;26686;50.130;8.710;2023-04-25T13:49:07;5.00;;;3.13;;
40953;SDS011;26686;50.130;8.710;2023-04-25T13:54:13;4.97;;;2.78;;
40953;SDS011;26686;50.130;8.710;2023-04-25T13:59:14;9.00;;;2.80;;
40953;SDS011;26686;50.130;8.710;2023-04-25T14:04:16;7.05;;;2.33;;
40953;SDS011;26686;50.130;8.710;2023-04-25T14:09:18;7.10;;;3.03;;
40953;SDS011;26686;50.130;8.710;2023-04-25T14:14:21;5.13;;;2.50;;
40953;SDS011;26686;50.130;8.710;2023-04-25T14:19:23;4.20;;;2.42;;
40953;SDS011;26686;50.130;8.710;2023-04-25T14:24:24;4.10;;;1.77;;
40953;SDS011;26686;50.130;8.710;2023-04-25T14:29:26;2.90;;;1.75;;
40953;SDS011;26686;50.130;8.710;2023-04-25T14:34:27;5.80;;;1.92;;
40953;SDS011;26686;50.130;8.710;2023-04-25T14:39:29;5.78;;;1.90;;
40953;SDS011;26686;50.130;8.710;2023-04-25T14:44:30;3.65;;;2.00;;
40953;SDS011;26686;50.130;8.710;2023-04-25T14:49:32;4.82;;;1.92;;
40953;SDS011;26686;50.130;8.710;2023-04-25T14:54:34;5.30;;;2.13;;
40953;SDS011;26686;50.130;8.710;2023-04-25T14:59:35;5.50;;;2.10;;
40953;SDS011;26686;50.130;8.710;2023-04-25T15:04:36;2.90;;;1.90;;
40953;SDS011;26686;50.130;8.710;2023-04-25T15:09:38;3.22;;;1.85;;
40953;SDS011;26686;50.130;8.710;2023-04-25T15:14:39;3.95;;;1.90;;
40953;SDS011;26686;50.130;8.710;2023-04-25T15:19:41;6.35;;;2.13;;
40953;SDS011;26686;50.130;8.710;2023-04-25T15:24:42;2.30;;;1.70;;
40953;SDS011;26686;50.130;8.710;2023-04-25T15:29:44;3.80;;;1.58;;
40953;SDS011;26686;50.130;8.710;2023-04-25T15:34:45;4.15;;;1.60;;
40953;SDS011;26686;50.130;8.710;2023-04-25T15:39:47;4.50;;;2.22;;
40953;SDS011;26686;50.130;8.710;2023-04-25T15:44:48;2.60;;;2.30;;
40953;SDS011;26686;50.130;8.710;2023-04-25T15:49:49;6.32;;;1.80;;
40953;SDS011;26686;50.130;8.710;2023-04-25T15:54:51;4.57;;;1.80;;
40953;SDS011;26686;50.130;8.710;2023-04-25T15:59:52;5.28;;;2.10;;
40953;SDS011;26686;50.130;8.710;2023-04-25T16:04:54;3.83;;;1.60;;
40953;SDS011;26686;50.130;8.710;2023-04-25T16:09:56;4.82;;;1.90;;
40953;SDS011;26686;50.130;8.710;2023-04-25T16:14:57;4.57;;;1.65;;
40953;SDS011;26686;50.130;8.710;2023-04-25T16:19:59;3.25;;;1.63;;
40953;SDS011;26686;50.130;8.710;2023-04-25T16:25:03;2.78;;;1.85;;
40953;SDS011;26686;50.130;8.710;2023-04-25T16:30:06;3.83;;;1.58;;
40953;SDS011;26686;50.130;8.710;2023-04-25T16:35:09;5.37;;;1.73;;
40953;SDS011;26686;50.130;8.710;2023-04-25T16:40:10;3.33;;;1.55;;
40953;SDS011;26686;50.130;8.710;2023-04-25T16:45:13;3.22;;;1.65;;
40953;SDS011;26686;50.130;8.710;2023-04-25T16:50:14;6.93;;;2.35;;
40953;SDS011;26686;50.130;8.710;2023-04-25T16:55:17;4.53;;;1.65;;
40953;SDS011;26686;50.130;8.710;2023-04-25T17:00:18;3.92;;;2.25;;
40953;SDS011;26686;50.130;8.710;2023-04-25T17:05:20;4.78;;;1.73;;
40953;SDS011;26686;50.130;8.710;2023-04-25T17:10:21;3.75;;;1.50;;
40953;SDS011;26686;50.130;8.710;2023-04-25T17:15:23;5.53;;;2.35;;
40953;SDS011;26686;50.130;8.710;2023-04-25T17:20:25;2.80;;;1.65;;
40953;SDS011;26686;50.130;8.710;2023-04-25T17:25:27;3.53;;;1.40;;
40953;SDS011;26686;50.130;8.710;2023-04-25T17:30:28;11.10;;;1.77;;
40953;SDS011;26686;50.130;8.710;2023-04-25T17:35:30;4.75;;;1.58;;
40953;SDS011;26686;50.130;8.710;2023-04-25T17:40:34;5.30;;;1.60;;
40953;SDS011;26686;50.130;8.710;2023-04-25T17:45:35;3.90;;;1.70;;
40953;SDS011;26686;50.130;8.710;2023-04-25T17:50:37;4.65;;;1.30;;
40953;SDS011;26686;50.130;8.710;2023-04-25T17:55:38;4.97;;;2.28;;
40953;SDS011;26686;50.130;8.710;2023-04-25T18:00:43;5.25;;;1.40;;
40953;SDS011;26686;50.130;8.710;2023-04-25T18:05:45;4.53;;;1.90;;
40953;SDS011;26686;50.130;8.710;2023-04-25T18:10:46;3.70;;;1.88;;
40953;SDS011;26686;50.130;8.710;2023-04-25T18:15:48;5.68;;;1.98;;
40953;SDS011;26686;50.130;8.710;2023-04-25T18:20:51;3.75;;;1.77;;
40953;SDS011;26686;50.130;8.710;2023-04-25T18:25:53;3.45;;;1.42;;
40953;SDS011;26686;50.130;8.710;2023-04-25T18:30:55;5.03;;;1.75;;
40953;SDS011;26686;50.130;8.710;2023-04-25T18:35:57;3.35;;;1.65;;
40953;SDS011;26686;50.130;8.710;2023-04-25T18:46:23;2.97;;;1.67;;
40953;SDS011;26686;50.130;8.710;2023-04-25T18:51:24;3.88;;;1.63;;
40953;SDS011;26686;50.130;8.710;2023-04-25T18:56:31;4.25;;;2.80;;
40953;SDS011;26686;50.130;8.710;2023-04-25T19:01:33;2.67;;;1.58;;
40953;SDS011;26686;50.130;8.710;2023-04-25T19:06:34;3.30;;;1.80;;
40953;SDS011;26686;50.130;8.710;2023-04-25T19:11:36;5.03;;;1.40;;
40953;SDS011;26686;50.130;8.710;2023-04-25T19:16:38;4.43;;;1.38;;
40953;SDS011;26686;50.130;8.710;2023-04-25T19:21:40;5.15;;;1.77;;
40953;SDS011;26686;50.130;8.710;2023-04-25T19:26:41;5.45;;;1.65;;
40953;SDS011;26686;50.130;8.710;2023-04-25T19:31:43;2.75;;;1.40;;
40953;SDS011;26686;50.130;8.710;2023-04-25T19:36:45;4.15;;;1.60;;
40953;SDS011;26686;50.130;8.710;2023-04-25T19:41:47;4.40;;;1.65;;
40953;SDS011;26686;50.130;8.710;2023-04-25T19:46:48;4.85;;;2.15;;
40953;SDS011;26686;50.130;8.710;2023-04-25T19:51:50;5.00;;;1.70;;
40953;SDS011;26686;50.130;8.710;2023-04-25T19:56:51;4.30;;;1.90;;
40953;SDS011;26686;50.130;8.710;2023-04-25T20:01:53;2.67;;;1.17;;
40953;SDS011;26686;50.130;8.710;2023-04-25T20:06:55;4.18;;;1.45;;
40953;SDS011;26686;50.130;8.710;2023-04-25T20:11:58;4.43;;;1.27;;
40953;SDS011;26686;50.130;8.710;2023-04-25T20:16:59;3.20;;;1.33;;
40953;SDS011;26686;50.130;8.710;2023-04-25T20:22:00;3.08;;;1.13;;
40953;SDS011;26686;50.130;8.710;2023-04-25T20:27:02;2.03;;;1.20;;
40953;SDS011;26686;50.130;8.710;2023-04-25T20:32:03;6.63;;;1.73;;
40953;SDS011;26686;50.130;8.710;2023-04-25T20:37:06;3.17;;;1.33;;
40953;SDS011;26686;50.130;8.710;2023-04-25T20:42:09;4.28;;;1.92;;
40953;SDS011;26686;50.130;8.710;2023-04-25T20:47:10;2.38;;;1.23;;
40953;SDS011;26686;50.130;8.710;2023-04-25T20:52:11;1.85;;;1.20;;
40953;SDS011;26686;50.130;8.710;2023-04-25T20:57:13;4.40;;;1.30;;
40953;SDS011;26686;50.130;8.710;2023-04-25T21:02:14;2.67;;;1.58;;
40953;SDS011;26686;50.130;8.710;2023-04-25T21:07:16;3.08;;;1.42;;
40953;SDS011;26686;50.130;8.710;2023-04-25T21:12:17;3.03;;;1.45;;
40953;SDS011;26686;50.130;8.710;2023-04-25T21:17:18;6.63;;;1.55;;
40953;SDS011;26686;50.130;8.710;2023-04-25T21:22:20;2.03;;;1.45;;
40953;SDS011;26686;50.130;8.710;2023-04-25T21:27:21;3.30;;;1.33;;
40953;SDS011;26686;50.130;8.710;2023-04-25T21:32:23;5.75;;;1.40;;
40953;SDS011;26686;50.130;8.710;2023-04-25T21:37:24;3.45;;;1.88;;
40953;SDS011;26686;50.130;8.710;2023-04-25T21:42:26;5.22;;;1.40;;
40953;SDS011;26686;50.130;8.710;2023-04-25T21:47:27;3.85;;;1.95;;
40953;SDS011;26686;50.130;8.710;2023-04-25T21:52:29;4.05;;;1.55;;
40953;SDS011;26686;50.130;8.710;2023-04-25T21:57:31;4.38;;;1.75;;
40953;SDS011;26686;50.130;8.710;2023-04-25T22:02:33;4.03;;;1.48;;
40953;SDS011;26686;50.130;8.710;2023-04-25T22:07:36;3.03;;;2.40;;
40953;SDS011;26686;50.130;8.710;2023-04-25T22:12:38;3.08;;;1.48;;
40953;SDS011;26686;50.130;8.710;2023-04-25T22:17:39;5.10;;;1.77;;
40953;SDS011;26686;50.130;8.710;2023-04-25T22:22:44;5.25;;;1.60;;
40953;SDS011;26686;50.130;8.710;2023-04-25T22:27:46;2.67;;;1.38;;
40953;SDS011;26686;50.130;8.710;2023-04-25T22:32:48;6.03;;;1.90;;
40953;SDS011;26686;50.130;8.710;2023-04-25T22:37:50;3.90;;;1.35;;
40953;SDS011;26686;50.130;8.710;2023-04-25T22:42:51;2.00;;;1.02;;
40953;SDS011;26686;50.130;8.710;2023-04-25T22:47:52;2.92;;;1.67;;
40953;SDS011;26686;50.130;8.710;2023-04-25T22:52:54;2.97;;;1.35;;
40953;SDS011;26686;50.130;8.710;2023-04-25T22:57:55;3.60;;;1.60;;
40953;SDS011;26686;50.130;8.710;2023-04-25T23:02:57;4.93;;;1.90;;
40953;SDS011;26686;50.130;8.710;2023-04-25T23:07:59;2.63;;;1.40;;
40953;SDS011;26686;50.130;8.710;2023-04-25T23:13:00;5.95;;;2.13;;
40953;SDS011;26686;50.130;8.710;2023-04-25T23:18:02;3.28;;;1.55;;
40953;SDS011;26686;50.130;8.710;2023-04-25T23:23:03;4.43;;;1.45;;
40953;SDS011;26686;50.130;8.710;2023-04-25T23:28:05;3.72;;;1.85;;
40953;SDS011;26686;50.130;8.710;2023-04-25T23:33:07;3.97;;;1.60;;
40953;SDS011;26686;50.130;8.710;2023-04-25T23:38:09;3.00;;;1.45;;
40953;SDS011;26686;50.130;8.710;2023-04-25T23:43:10;3.95;;;1.95;;
40953;SDS011;26686;50.130;8.710;2023-04-25T23:48:12;3.42;;;1.52;;
40953;SDS011;26686;50.130;8.710;2023-04-25T23:53:14;3.40;;;1.42;;
40953;SDS011;26686;50.130;8.710;2023-04-25T23:58:16;2.95;;;1.95;;
